sensor_id;sensor_type;location;lat;lon;timestamp;P1;durP1;ratioP1;P2;durP2;ratioP2
2624;SDS011;1322;53.256;10.386;2022-10-17T00:02:14;6.27;;;4.10;;
2624;SDS011;1322;53.256;10.386;2022-10-17T00:04:40;4.40;;;4.00;;
2624;SDS011;1322;53.256;10.386;2022-10-17T00:07:05;7.23;;;4.43;;
2624;SDS011;1322;53.256;10.386;2022-10-17T00:09:31;7.67;;;4.83;;
2624;SDS011;1322;53.256;10.386;2022-10-17T00:11:56;4.53;;;3.97;;
2624;SDS011;1322;53.256;10.386;2022-10-17T00:14:22;5.83;;;4.37;;
2624;SDS011;1322;53.256;10.386;2022-10-17T00:16:48;4.60;;;4.20;;
2624;SDS011;1322;53.256;10.386;2022-10-17T00:19:13;4.33;;;3.80;;
2624;SDS011;1322;53.256;10.386;2022-10-17T00:21:39;6.30;;;3.50;;
2624;SDS011;1322;53.256;10.386;2022-10-17T00:24:04;4.70;;;4.03;;
2624;SDS011;1322;53.256;10.386;2022-10-17T00:26:30;4.20;;;3.43;;
2624;SDS011;1322;53.256;10.386;2022-10-17T00:28:56;4.07;;;3.67;;
2624;SDS011;1322;53.256;10.386;2022-10-17T00:31:22;4.87;;;4.47;;
2624;SDS011;1322;53.256;10.386;2022-10-17T00:33:49;6.83;;;3.63;;
2624;SDS011;1322;53.256;10.386;2022-10-17T00:36:19;5.90;;;4.13;;
2624;SDS011;1322;53.256;10.386;2022-10-17T00:38:47;4.53;;;4.13;;
2624;SDS011;1322;53.256;10.386;2022-10-17T00:41:16;5.03;;;4.50;;
2624;SDS011;1322;53.256;10.386;2022-10-17T00:46:29;6.20;;;4.00;;
2624;SDS011;1322;53.256;10.386;2022-10-17T00:49:02;6.00;;;3.60;;
2624;SDS011;1322;53.256;10.386;2022-10-17T00:51:40;4.80;;;3.93;;
2624;SDS011;1322;53.256;10.386;2022-10-17T00:54:09;6.17;;;3.30;;
2624;SDS011;1322;53.256;10.386;2022-10-17T00:56:36;4.37;;;3.57;;
2624;SDS011;1322;53.256;10.386;2022-10-17T00:59:04;5.93;;;3.50;;
2624;SDS011;1322;53.256;10.386;2022-10-17T01:01:31;10.23;;;3.97;;
2624;SDS011;1322;53.256;10.386;2022-10-17T01:03:56;6.03;;;4.50;;
2624;SDS011;1322;53.256;10.386;2022-10-17T01:06:22;6.00;;;5.10;;
2624;SDS011;1322;53.256;10.386;2022-10-17T01:08:47;6.67;;;4.90;;
2624;SDS011;1322;53.256;10.386;2022-10-17T01:11:20;5.63;;;4.50;;
2624;SDS011;1322;53.256;10.386;2022-10-17T01:24:26;5.73;;;4.03;;
2624;SDS011;1322;53.256;10.386;2022-10-17T01:32:44;4.40;;;4.00;;
2624;SDS011;1322;53.256;10.386;2022-10-17T01:38:09;7.80;;;4.20;;
2624;SDS011;1322;53.256;10.386;2022-10-17T01:40:59;4.37;;;3.93;;
2624;SDS011;1322;53.256;10.386;2022-10-17T01:43:38;5.00;;;3.97;;
2624;SDS011;1322;53.256;10.386;2022-10-17T01:48:50;4.10;;;3.63;;
2624;SDS011;1322;53.256;10.386;2022-10-17T01:51:18;5.43;;;4.10;;
2624;SDS011;1322;53.256;10.386;2022-10-17T01:53:59;4.70;;;4.07;;
2624;SDS011;1322;53.256;10.386;2022-10-17T01:56:28;4.03;;;3.60;;
2624;SDS011;1322;53.256;10.386;2022-10-17T01:58:56;5.57;;;3.57;;
2624;SDS011;1322;53.256;10.386;2022-10-17T02:01:27;4.90;;;3.90;;
2624;SDS011;1322;53.256;10.386;2022-10-17T02:03:54;5.73;;;3.70;;
2624;SDS011;1322;53.256;10.386;2022-10-17T02:06:22;8.37;;;3.67;;
2624;SDS011;1322;53.256;10.386;2022-10-17T02:08:48;9.97;;;3.50;;
2624;SDS011;1322;53.256;10.386;2022-10-17T02:11:16;5.30;;;3.40;;
2624;SDS011;1322;53.256;10.386;2022-10-17T02:13:48;4.47;;;3.30;;
2624;SDS011;1322;53.256;10.386;2022-10-17T02:19:15;3.40;;;3.10;;
2624;SDS011;1322;53.256;10.386;2022-10-17T02:22:06;3.30;;;2.63;;
2624;SDS011;1322;53.256;10.386;2022-10-17T02:30:41;5.07;;;3.70;;
2624;SDS011;1322;53.256;10.386;2022-10-17T02:33:15;3.30;;;3.00;;
2624;SDS011;1322;53.256;10.386;2022-10-17T02:35:50;3.17;;;2.87;;
2624;SDS011;1322;53.256;10.386;2022-10-17T02:38:21;7.77;;;3.53;;
2624;SDS011;1322;53.256;10.386;2022-10-17T02:40:49;4.30;;;3.70;;
2624;SDS011;1322;53.256;10.386;2022-10-17T02:43:16;5.50;;;3.53;;
2624;SDS011;1322;53.256;10.386;2022-10-17T02:45:43;3.00;;;2.80;;
2624;SDS011;1322;53.256;10.386;2022-10-17T02:48:12;7.70;;;3.70;;
2624;SDS011;1322;53.256;10.386;2022-10-17T02:56:17;3.70;;;3.20;;
2624;SDS011;1322;53.256;10.386;2022-10-17T02:58:53;6.30;;;3.30;;
2624;SDS011;1322;53.256;10.386;2022-10-17T03:01:22;4.40;;;2.90;;
2624;SDS011;1322;53.256;10.386;2022-10-17T03:03:48;3.53;;;3.23;;
2624;SDS011;1322;53.256;10.386;2022-10-17T03:06:14;5.13;;;3.33;;
2624;SDS011;1322;53.256;10.386;2022-10-17T03:08:40;4.30;;;3.73;;
2624;SDS011;1322;53.256;10.386;2022-10-17T03:11:05;3.60;;;3.30;;
2624;SDS011;1322;53.256;10.386;2022-10-17T03:13:31;7.03;;;3.20;;
2624;SDS011;1322;53.256;10.386;2022-10-17T03:15:57;5.43;;;2.90;;
2624;SDS011;1322;53.256;10.386;2022-10-17T03:18:22;4.13;;;3.23;;
2624;SDS011;1322;53.256;10.386;2022-10-17T03:20:48;4.00;;;3.57;;
2624;SDS011;1322;53.256;10.386;2022-10-17T03:23:14;3.43;;;3.13;;
2624;SDS011;1322;53.256;10.386;2022-10-17T03:25:39;4.63;;;3.47;;
2624;SDS011;1322;53.256;10.386;2022-10-17T03:28:05;4.60;;;3.40;;
2624;SDS011;1322;53.256;10.386;2022-10-17T03:30:31;3.77;;;3.47;;
2624;SDS011;1322;53.256;10.386;2022-10-17T03:32:57;3.00;;;2.53;;
2624;SDS011;1322;53.256;10.386;2022-10-17T03:35:23;3.90;;;2.67;;
2624;SDS011;1322;53.256;10.386;2022-10-17T03:37:49;4.43;;;3.10;;
2624;SDS011;1322;53.256;10.386;2022-10-17T03:40:14;5.50;;;2.90;;
2624;SDS011;1322;53.256;10.386;2022-10-17T03:42:40;8.57;;;3.30;;
2624;SDS011;1322;53.256;10.386;2022-10-17T03:45:06;5.13;;;2.80;;
2624;SDS011;1322;53.256;10.386;2022-10-17T03:47:32;3.10;;;2.80;;
2624;SDS011;1322;53.256;10.386;2022-10-17T03:49:57;4.70;;;2.60;;
2624;SDS011;1322;53.256;10.386;2022-10-17T03:52:23;2.80;;;2.40;;
2624;SDS011;1322;53.256;10.386;2022-10-17T03:54:49;4.37;;;3.10;;
2624;SDS011;1322;53.256;10.386;2022-10-17T03:57:15;4.73;;;3.10;;
2624;SDS011;1322;53.256;10.386;2022-10-17T03:59:41;4.40;;;2.73;;
2624;SDS011;1322;53.256;10.386;2022-10-17T04:02:07;3.60;;;3.00;;
2624;SDS011;1322;53.256;10.386;2022-10-17T04:04:32;4.40;;;2.60;;
2624;SDS011;1322;53.256;10.386;2022-10-17T04:06:58;4.10;;;2.63;;
2624;SDS011;1322;53.256;10.386;2022-10-17T04:09:23;3.87;;;2.57;;
2624;SDS011;1322;53.256;10.386;2022-10-17T04:11:49;3.33;;;2.93;;
2624;SDS011;1322;53.256;10.386;2022-10-17T04:14:15;3.03;;;2.53;;
2624;SDS011;1322;53.256;10.386;2022-10-17T04:16:40;8.33;;;2.47;;
2624;SDS011;1322;53.256;10.386;2022-10-17T04:19:06;2.63;;;2.43;;
2624;SDS011;1322;53.256;10.386;2022-10-17T04:21:31;4.80;;;2.70;;
2624;SDS011;1322;53.256;10.386;2022-10-17T04:23:58;5.77;;;2.53;;
2624;SDS011;1322;53.256;10.386;2022-10-17T04:26:24;6.07;;;2.97;;
2624;SDS011;1322;53.256;10.386;2022-10-17T04:28:51;3.23;;;2.60;;
2624;SDS011;1322;53.256;10.386;2022-10-17T04:31:17;2.27;;;2.10;;
2624;SDS011;1322;53.256;10.386;2022-10-17T04:33:45;2.40;;;2.20;;
2624;SDS011;1322;53.256;10.386;2022-10-17T04:36:13;5.87;;;2.30;;
2624;SDS011;1322;53.256;10.386;2022-10-17T04:38:40;9.27;;;2.50;;
2624;SDS011;1322;53.256;10.386;2022-10-17T04:41:06;4.53;;;2.10;;
2624;SDS011;1322;53.256;10.386;2022-10-17T04:43:35;3.57;;;2.40;;
2624;SDS011;1322;53.256;10.386;2022-10-17T04:46:03;4.67;;;2.80;;
2624;SDS011;1322;53.256;10.386;2022-10-17T04:48:33;5.37;;;2.87;;
2624;SDS011;1322;53.256;10.386;2022-10-17T04:51:00;3.03;;;2.60;;
2624;SDS011;1322;53.256;10.386;2022-10-17T04:53:33;4.57;;;2.00;;
2624;SDS011;1322;53.256;10.386;2022-10-17T04:56:00;5.13;;;3.00;;
2624;SDS011;1322;53.256;10.386;2022-10-17T04:58:32;3.00;;;2.40;;
2624;SDS011;1322;53.256;10.386;2022-10-17T05:00:57;5.83;;;2.80;;
2624;SDS011;1322;53.256;10.386;2022-10-17T05:03:23;4.27;;;2.93;;
2624;SDS011;1322;53.256;10.386;2022-10-17T05:05:48;4.40;;;2.60;;
2624;SDS011;1322;53.256;10.386;2022-10-17T05:08:14;3.20;;;2.70;;
2624;SDS011;1322;53.256;10.386;2022-10-17T05:10:41;3.03;;;2.60;;
2624;SDS011;1322;53.256;10.386;2022-10-17T05:13:08;3.33;;;2.60;;
2624;SDS011;1322;53.256;10.386;2022-10-17T05:15:35;2.73;;;2.47;;
2624;SDS011;1322;53.256;10.386;2022-10-17T05:18:02;3.40;;;2.90;;
2624;SDS011;1322;53.256;10.386;2022-10-17T05:20:28;4.53;;;2.80;;
2624;SDS011;1322;53.256;10.386;2022-10-17T05:22:54;4.03;;;2.80;;
2624;SDS011;1322;53.256;10.386;2022-10-17T05:25:19;4.97;;;2.67;;
2624;SDS011;1322;53.256;10.386;2022-10-17T05:27:45;2.70;;;2.50;;
2624;SDS011;1322;53.256;10.386;2022-10-17T05:30:11;2.60;;;2.40;;
2624;SDS011;1322;53.256;10.386;2022-10-17T05:32:37;4.00;;;2.20;;
2624;SDS011;1322;53.256;10.386;2022-10-17T05:35:03;3.87;;;2.40;;
2624;SDS011;1322;53.256;10.386;2022-10-17T05:37:29;3.03;;;2.60;;
2624;SDS011;1322;53.256;10.386;2022-10-17T05:39:55;4.30;;;3.07;;
2624;SDS011;1322;53.256;10.386;2022-10-17T05:42:21;4.97;;;2.80;;
2624;SDS011;1322;53.256;10.386;2022-10-17T05:44:46;3.50;;;2.90;;
2624;SDS011;1322;53.256;10.386;2022-10-17T05:47:12;3.03;;;2.60;;
2624;SDS011;1322;53.256;10.386;2022-10-17T05:49:38;3.80;;;2.13;;
2624;SDS011;1322;53.256;10.386;2022-10-17T05:52:03;3.27;;;2.90;;
2624;SDS011;1322;53.256;10.386;2022-10-17T05:54:29;7.70;;;4.67;;
2624;SDS011;1322;53.256;10.386;2022-10-17T05:56:55;4.30;;;3.90;;
2624;SDS011;1322;53.256;10.386;2022-10-17T05:59:21;4.83;;;2.93;;
2624;SDS011;1322;53.256;10.386;2022-10-17T06:01:48;4.20;;;3.20;;
2624;SDS011;1322;53.256;10.386;2022-10-17T06:04:14;5.10;;;2.60;;
2624;SDS011;1322;53.256;10.386;2022-10-17T06:06:39;4.87;;;4.47;;
2624;SDS011;1322;53.256;10.386;2022-10-17T06:09:06;4.17;;;3.47;;
2624;SDS011;1322;53.256;10.386;2022-10-17T06:11:32;3.37;;;3.00;;
2624;SDS011;1322;53.256;10.386;2022-10-17T06:13:59;7.80;;;3.37;;
2624;SDS011;1322;53.256;10.386;2022-10-17T06:16:26;3.73;;;3.17;;
2624;SDS011;1322;53.256;10.386;2022-10-17T06:18:51;4.47;;;3.87;;
2624;SDS011;1322;53.256;10.386;2022-10-17T06:21:21;5.67;;;3.70;;
2624;SDS011;1322;53.256;10.386;2022-10-17T06:23:48;3.70;;;3.10;;
2624;SDS011;1322;53.256;10.386;2022-10-17T06:26:14;4.00;;;3.57;;
2624;SDS011;1322;53.256;10.386;2022-10-17T06:28:40;4.90;;;4.10;;
2624;SDS011;1322;53.256;10.386;2022-10-17T06:31:06;3.73;;;3.33;;
2624;SDS011;1322;53.256;10.386;2022-10-17T06:33:35;4.67;;;3.23;;
2624;SDS011;1322;53.256;10.386;2022-10-17T06:36:00;5.03;;;3.30;;
2624;SDS011;1322;53.256;10.386;2022-10-17T06:38:28;5.37;;;3.63;;
2624;SDS011;1322;53.256;10.386;2022-10-17T06:40:53;5.27;;;3.50;;
2624;SDS011;1322;53.256;10.386;2022-10-17T06:43:21;7.13;;;3.90;;
2624;SDS011;1322;53.256;10.386;2022-10-17T06:45:47;18.93;;;13.30;;
2624;SDS011;1322;53.256;10.386;2022-10-17T06:48:12;7.87;;;5.50;;
2624;SDS011;1322;53.256;10.386;2022-10-17T06:50:39;5.50;;;3.40;;
2624;SDS011;1322;53.256;10.386;2022-10-17T06:53:04;4.70;;;3.40;;
2624;SDS011;1322;53.256;10.386;2022-10-17T06:55:30;5.40;;;3.87;;
2624;SDS011;1322;53.256;10.386;2022-10-17T06:57:56;4.40;;;4.00;;
2624;SDS011;1322;53.256;10.386;2022-10-17T07:00:22;4.23;;;3.70;;
2624;SDS011;1322;53.256;10.386;2022-10-17T07:02:50;7.70;;;3.97;;
2624;SDS011;1322;53.256;10.386;2022-10-17T07:05:16;4.60;;;3.93;;
2624;SDS011;1322;53.256;10.386;2022-10-17T07:07:43;6.23;;;3.67;;
2624;SDS011;1322;53.256;10.386;2022-10-17T07:10:09;4.47;;;3.80;;
2624;SDS011;1322;53.256;10.386;2022-10-17T07:12:35;5.93;;;3.40;;
2624;SDS011;1322;53.256;10.386;2022-10-17T07:15:01;5.27;;;4.07;;
2624;SDS011;1322;53.256;10.386;2022-10-17T07:17:28;3.87;;;3.47;;
2624;SDS011;1322;53.256;10.386;2022-10-17T07:19:54;5.40;;;3.90;;
2624;SDS011;1322;53.256;10.386;2022-10-17T07:22:20;5.80;;;4.20;;
2624;SDS011;1322;53.256;10.386;2022-10-17T07:24:45;14.50;;;8.03;;
2624;SDS011;1322;53.256;10.386;2022-10-17T07:27:11;6.60;;;4.77;;
2624;SDS011;1322;53.256;10.386;2022-10-17T07:29:37;3.50;;;3.13;;
2624;SDS011;1322;53.256;10.386;2022-10-17T07:32:03;9.37;;;3.63;;
2624;SDS011;1322;53.256;10.386;2022-10-17T07:34:32;4.80;;;3.43;;
2624;SDS011;1322;53.256;10.386;2022-10-17T07:37:01;3.57;;;3.20;;
2624;SDS011;1322;53.256;10.386;2022-10-17T07:39:27;7.67;;;4.03;;
2624;SDS011;1322;53.256;10.386;2022-10-17T07:41:53;3.53;;;3.10;;
2624;SDS011;1322;53.256;10.386;2022-10-17T07:44:19;4.60;;;3.07;;
2624;SDS011;1322;53.256;10.386;2022-10-17T07:46:45;2.77;;;2.57;;
2624;SDS011;1322;53.256;10.386;2022-10-17T07:49:10;4.90;;;3.60;;
2624;SDS011;1322;53.256;10.386;2022-10-17T07:51:36;4.00;;;3.40;;
2624;SDS011;1322;53.256;10.386;2022-10-17T07:54:03;6.73;;;2.90;;
2624;SDS011;1322;53.256;10.386;2022-10-17T07:56:29;11.10;;;3.60;;
2624;SDS011;1322;53.256;10.386;2022-10-17T07:58:55;4.67;;;3.27;;
2624;SDS011;1322;53.256;10.386;2022-10-17T08:01:21;3.70;;;2.97;;
2624;SDS011;1322;53.256;10.386;2022-10-17T08:03:47;4.73;;;3.60;;
2624;SDS011;1322;53.256;10.386;2022-10-17T08:06:13;3.80;;;3.20;;
2624;SDS011;1322;53.256;10.386;2022-10-17T08:08:39;9.27;;;3.77;;
2624;SDS011;1322;53.256;10.386;2022-10-17T08:11:06;4.60;;;3.33;;
2624;SDS011;1322;53.256;10.386;2022-10-17T08:13:33;3.77;;;2.90;;
2624;SDS011;1322;53.256;10.386;2022-10-17T08:16:00;6.90;;;3.40;;
2624;SDS011;1322;53.256;10.386;2022-10-17T08:18:27;4.53;;;2.70;;
2624;SDS011;1322;53.256;10.386;2022-10-17T08:20:52;5.83;;;3.20;;
2624;SDS011;1322;53.256;10.386;2022-10-17T08:23:18;6.70;;;3.23;;
2624;SDS011;1322;53.256;10.386;2022-10-17T08:25:44;5.30;;;2.77;;
2624;SDS011;1322;53.256;10.386;2022-10-17T08:28:09;4.17;;;2.80;;
2624;SDS011;1322;53.256;10.386;2022-10-17T08:30:35;7.23;;;3.00;;
2624;SDS011;1322;53.256;10.386;2022-10-17T08:33:01;4.27;;;2.93;;
2624;SDS011;1322;53.256;10.386;2022-10-17T08:35:26;7.07;;;3.03;;
2624;SDS011;1322;53.256;10.386;2022-10-17T08:37:52;2.80;;;2.43;;
2624;SDS011;1322;53.256;10.386;2022-10-17T08:40:19;5.40;;;2.53;;
2624;SDS011;1322;53.256;10.386;2022-10-17T08:45:32;4.60;;;3.17;;
2624;SDS011;1322;53.256;10.386;2022-10-17T08:48:08;3.67;;;2.70;;
2624;SDS011;1322;53.256;10.386;2022-10-17T08:53:09;4.47;;;3.00;;
2624;SDS011;1322;53.256;10.386;2022-10-17T08:55:37;4.27;;;2.90;;
2624;SDS011;1322;53.256;10.386;2022-10-17T08:58:11;3.80;;;2.40;;
2624;SDS011;1322;53.256;10.386;2022-10-17T09:03:50;17.27;;;13.13;;
2624;SDS011;1322;53.256;10.386;2022-10-17T09:06:38;6.33;;;3.83;;
2624;SDS011;1322;53.256;10.386;2022-10-17T09:19:36;4.97;;;3.50;;
2624;SDS011;1322;53.256;10.386;2022-10-17T09:22:11;6.70;;;3.80;;
2624;SDS011;1322;53.256;10.386;2022-10-17T09:24:50;6.13;;;3.40;;
2624;SDS011;1322;53.256;10.386;2022-10-17T09:33:15;4.80;;;2.97;;
2624;SDS011;1322;53.256;10.386;2022-10-17T09:35:45;3.90;;;3.40;;
2624;SDS011;1322;53.256;10.386;2022-10-17T09:38:21;5.83;;;2.87;;
2624;SDS011;1322;53.256;10.386;2022-10-17T09:40:58;2.70;;;2.27;;
2624;SDS011;1322;53.256;10.386;2022-10-17T09:43:25;4.63;;;3.50;;
2624;SDS011;1322;53.256;10.386;2022-10-17T09:46:11;3.73;;;3.13;;
2624;SDS011;1322;53.256;10.386;2022-10-17T09:48:48;5.67;;;3.20;;
2624;SDS011;1322;53.256;10.386;2022-10-17T09:51:24;4.03;;;2.63;;
2624;SDS011;1322;53.256;10.386;2022-10-17T09:53:52;5.63;;;3.70;;
2624;SDS011;1322;53.256;10.386;2022-10-17T09:56:27;9.97;;;3.00;;
2624;SDS011;1322;53.256;10.386;2022-10-17T09:58:55;3.13;;;2.70;;
2624;SDS011;1322;53.256;10.386;2022-10-17T10:01:23;5.20;;;2.77;;
2624;SDS011;1322;53.256;10.386;2022-10-17T10:04:09;4.60;;;2.70;;
2624;SDS011;1322;53.256;10.386;2022-10-17T10:06:36;3.37;;;3.07;;
2624;SDS011;1322;53.256;10.386;2022-10-17T10:09:03;5.23;;;2.77;;
2624;SDS011;1322;53.256;10.386;2022-10-17T10:11:47;3.63;;;3.07;;
2624;SDS011;1322;53.256;10.386;2022-10-17T10:16:57;4.67;;;3.00;;
2624;SDS011;1322;53.256;10.386;2022-10-17T10:19:28;4.37;;;2.80;;
2624;SDS011;1322;53.256;10.386;2022-10-17T10:22:04;3.47;;;3.00;;
2624;SDS011;1322;53.256;10.386;2022-10-17T10:24:31;4.43;;;2.93;;
2624;SDS011;1322;53.256;10.386;2022-10-17T10:27:03;6.13;;;3.30;;
2624;SDS011;1322;53.256;10.386;2022-10-17T10:29:40;4.60;;;3.93;;
2624;SDS011;1322;53.256;10.386;2022-10-17T10:32:23;4.70;;;3.50;;
2624;SDS011;1322;53.256;10.386;2022-10-17T10:34:52;7.57;;;3.47;;
2624;SDS011;1322;53.256;10.386;2022-10-17T10:37:22;5.20;;;3.40;;
2624;SDS011;1322;53.256;10.386;2022-10-17T10:39:52;4.33;;;3.03;;
2624;SDS011;1322;53.256;10.386;2022-10-17T10:42:28;11.33;;;3.63;;
2624;SDS011;1322;53.256;10.386;2022-10-17T10:44:56;4.80;;;3.40;;
2624;SDS011;1322;53.256;10.386;2022-10-17T10:47:54;5.97;;;2.80;;
2624;SDS011;1322;53.256;10.386;2022-10-17T10:58:25;4.77;;;3.20;;
2624;SDS011;1322;53.256;10.386;2022-10-17T11:01:02;4.53;;;3.40;;
2624;SDS011;1322;53.256;10.386;2022-10-17T11:06:33;6.33;;;2.97;;
2624;SDS011;1322;53.256;10.386;2022-10-17T11:11:38;4.47;;;3.23;;
2624;SDS011;1322;53.256;10.386;2022-10-17T11:14:29;4.40;;;3.63;;
2624;SDS011;1322;53.256;10.386;2022-10-17T11:27:55;6.07;;;3.27;;
2624;SDS011;1322;53.256;10.386;2022-10-17T11:30:20;4.20;;;3.27;;
2624;SDS011;1322;53.256;10.386;2022-10-17T11:33:00;4.70;;;3.60;;
2624;SDS011;1322;53.256;10.386;2022-10-17T11:35:30;4.10;;;3.50;;
2624;SDS011;1322;53.256;10.386;2022-10-17T11:38:20;5.50;;;3.13;;
2624;SDS011;1322;53.256;10.386;2022-10-17T11:41:02;5.13;;;3.50;;
2624;SDS011;1322;53.256;10.386;2022-10-17T11:43:31;3.50;;;3.10;;
2624;SDS011;1322;53.256;10.386;2022-10-17T11:48:52;5.97;;;3.67;;
2624;SDS011;1322;53.256;10.386;2022-10-17T11:51:25;4.07;;;3.67;;
2624;SDS011;1322;53.256;10.386;2022-10-17T12:02:37;6.10;;;3.57;;
2624;SDS011;1322;53.256;10.386;2022-10-17T12:05:24;6.77;;;3.50;;
2624;SDS011;1322;53.256;10.386;2022-10-17T12:08:04;6.77;;;3.70;;
2624;SDS011;1322;53.256;10.386;2022-10-17T12:15:54;9.93;;;4.47;;
2624;SDS011;1322;53.256;10.386;2022-10-17T12:18:22;4.73;;;4.00;;
2624;SDS011;1322;53.256;10.386;2022-10-17T12:20:58;5.53;;;4.00;;
2624;SDS011;1322;53.256;10.386;2022-10-17T12:23:28;3.93;;;3.27;;
2624;SDS011;1322;53.256;10.386;2022-10-17T12:26:02;9.43;;;3.67;;
2624;SDS011;1322;53.256;10.386;2022-10-17T12:28:32;5.20;;;3.37;;
2624;SDS011;1322;53.256;10.386;2022-10-17T12:31:08;8.40;;;3.83;;
2624;SDS011;1322;53.256;10.386;2022-10-17T12:38:52;5.33;;;3.67;;
2624;SDS011;1322;53.256;10.386;2022-10-17T12:52:05;4.50;;;3.73;;
2624;SDS011;1322;53.256;10.386;2022-10-17T12:54:43;7.80;;;3.90;;
2624;SDS011;1322;53.256;10.386;2022-10-17T12:58:17;5.40;;;3.40;;
2624;SDS011;1322;53.256;10.386;2022-10-17T13:00:36;8.60;;;4.10;;
2624;SDS011;1322;53.256;10.386;2022-10-17T13:03:13;6.50;;;3.23;;
2624;SDS011;1322;53.256;10.386;2022-10-17T13:05:56;9.30;;;3.63;;
2624;SDS011;1322;53.256;10.386;2022-10-17T13:08:26;6.10;;;3.50;;
2624;SDS011;1322;53.256;10.386;2022-10-17T13:11:02;6.50;;;4.83;;
2624;SDS011;1322;53.256;10.386;2022-10-17T13:13:36;7.43;;;3.70;;
2624;SDS011;1322;53.256;10.386;2022-10-17T13:16:27;5.70;;;3.77;;
2624;SDS011;1322;53.256;10.386;2022-10-17T13:19:19;6.57;;;4.00;;
2624;SDS011;1322;53.256;10.386;2022-10-17T13:21:57;5.90;;;4.03;;
2624;SDS011;1322;53.256;10.386;2022-10-17T13:26:53;9.13;;;7.67;;
2624;SDS011;1322;53.256;10.386;2022-10-17T13:29:19;7.53;;;4.50;;
2624;SDS011;1322;53.256;10.386;2022-10-17T13:31:50;5.70;;;3.73;;
2624;SDS011;1322;53.256;10.386;2022-10-17T13:34:18;8.53;;;3.70;;
2624;SDS011;1322;53.256;10.386;2022-10-17T13:36:48;5.63;;;3.73;;
2624;SDS011;1322;53.256;10.386;2022-10-17T13:39:18;9.77;;;4.23;;
2624;SDS011;1322;53.256;10.386;2022-10-17T13:41:46;5.20;;;3.70;;
2624;SDS011;1322;53.256;10.386;2022-10-17T13:44:13;5.10;;;4.10;;
2624;SDS011;1322;53.256;10.386;2022-10-17T13:46:42;5.77;;;4.70;;
2624;SDS011;1322;53.256;10.386;2022-10-17T13:49:53;7.80;;;4.37;;
2624;SDS011;1322;53.256;10.386;2022-10-17T13:51:59;4.83;;;4.00;;
2624;SDS011;1322;53.256;10.386;2022-10-17T13:56:59;7.33;;;4.80;;
2624;SDS011;1322;53.256;10.386;2022-10-17T13:59:33;7.97;;;5.10;;
2624;SDS011;1322;53.256;10.386;2022-10-17T14:02:02;12.13;;;5.70;;
2624;SDS011;1322;53.256;10.386;2022-10-17T14:04:29;7.73;;;5.27;;
2624;SDS011;1322;53.256;10.386;2022-10-17T14:06:55;9.33;;;5.10;;
2624;SDS011;1322;53.256;10.386;2022-10-17T14:09:22;6.60;;;5.07;;
2624;SDS011;1322;53.256;10.386;2022-10-17T14:11:57;7.03;;;4.73;;
2624;SDS011;1322;53.256;10.386;2022-10-17T14:14:27;11.60;;;6.30;;
2624;SDS011;1322;53.256;10.386;2022-10-17T14:16:54;6.17;;;4.83;;
2624;SDS011;1322;53.256;10.386;2022-10-17T14:22:13;8.27;;;5.63;;
2624;SDS011;1322;53.256;10.386;2022-10-17T14:24:43;8.40;;;5.83;;
2624;SDS011;1322;53.256;10.386;2022-10-17T14:29:54;6.87;;;6.03;;
2624;SDS011;1322;53.256;10.386;2022-10-17T14:32:24;7.17;;;6.20;;
2624;SDS011;1322;53.256;10.386;2022-10-17T14:34:52;9.43;;;5.90;;
2624;SDS011;1322;53.256;10.386;2022-10-17T14:37:30;33.83;;;23.40;;
2624;SDS011;1322;53.256;10.386;2022-10-17T14:40:04;15.17;;;13.57;;
2624;SDS011;1322;53.256;10.386;2022-10-17T14:42:31;8.80;;;7.37;;
2624;SDS011;1322;53.256;10.386;2022-10-17T14:45:06;8.13;;;6.90;;
2624;SDS011;1322;53.256;10.386;2022-10-17T14:47:36;11.40;;;6.97;;
2624;SDS011;1322;53.256;10.386;2022-10-17T14:50:04;7.83;;;6.27;;
2624;SDS011;1322;53.256;10.386;2022-10-17T14:52:58;13.83;;;6.73;;
2624;SDS011;1322;53.256;10.386;2022-10-17T14:55:30;9.33;;;6.67;;
2624;SDS011;1322;53.256;10.386;2022-10-17T14:57:56;6.77;;;5.57;;
2624;SDS011;1322;53.256;10.386;2022-10-17T15:00:22;9.50;;;6.40;;
2624;SDS011;1322;53.256;10.386;2022-10-17T15:02:49;8.20;;;6.00;;
2624;SDS011;1322;53.256;10.386;2022-10-17T15:05:16;11.03;;;6.20;;
2624;SDS011;1322;53.256;10.386;2022-10-17T15:07:44;10.10;;;6.60;;
2624;SDS011;1322;53.256;10.386;2022-10-17T15:12:59;10.30;;;6.27;;
2624;SDS011;1322;53.256;10.386;2022-10-17T15:15:26;5.77;;;5.07;;
2624;SDS011;1322;53.256;10.386;2022-10-17T15:17:52;10.37;;;5.90;;
2624;SDS011;1322;53.256;10.386;2022-10-17T15:20:18;9.43;;;5.70;;
2624;SDS011;1322;53.256;10.386;2022-10-17T15:22:45;9.17;;;5.93;;
2624;SDS011;1322;53.256;10.386;2022-10-17T15:25:10;7.37;;;5.17;;
2624;SDS011;1322;53.256;10.386;2022-10-17T15:27:36;11.50;;;8.83;;
2624;SDS011;1322;53.256;10.386;2022-10-17T15:30:02;9.13;;;6.70;;
2624;SDS011;1322;53.256;10.386;2022-10-17T15:32:28;8.43;;;6.07;;
2624;SDS011;1322;53.256;10.386;2022-10-17T15:34:53;9.00;;;5.90;;
2624;SDS011;1322;53.256;10.386;2022-10-17T15:37:20;6.30;;;5.50;;
2624;SDS011;1322;53.256;10.386;2022-10-17T15:39:51;6.20;;;5.40;;
2624;SDS011;1322;53.256;10.386;2022-10-17T15:42:21;7.27;;;5.77;;
2624;SDS011;1322;53.256;10.386;2022-10-17T15:44:51;6.60;;;6.00;;
2624;SDS011;1322;53.256;10.386;2022-10-17T15:47:18;12.37;;;6.00;;
2624;SDS011;1322;53.256;10.386;2022-10-17T15:49:49;6.00;;;5.40;;
2624;SDS011;1322;53.256;10.386;2022-10-17T15:52:14;8.20;;;5.70;;
2624;SDS011;1322;53.256;10.386;2022-10-17T15:54:40;7.90;;;6.03;;
2624;SDS011;1322;53.256;10.386;2022-10-17T15:57:07;8.33;;;6.80;;
2624;SDS011;1322;53.256;10.386;2022-10-17T15:59:43;10.20;;;6.50;;
2624;SDS011;1322;53.256;10.386;2022-10-17T16:02:14;7.07;;;6.30;;
2624;SDS011;1322;53.256;10.386;2022-10-17T16:04:40;8.50;;;6.73;;
2624;SDS011;1322;53.256;10.386;2022-10-17T16:07:06;10.20;;;9.10;;
2624;SDS011;1322;53.256;10.386;2022-10-17T16:09:32;12.93;;;11.53;;
2624;SDS011;1322;53.256;10.386;2022-10-17T16:12:02;30.60;;;26.70;;
2624;SDS011;1322;53.256;10.386;2022-10-17T16:14:29;23.67;;;19.13;;
2624;SDS011;1322;53.256;10.386;2022-10-17T16:16:56;17.87;;;15.23;;
2624;SDS011;1322;53.256;10.386;2022-10-17T16:19:23;14.73;;;13.20;;
2624;SDS011;1322;53.256;10.386;2022-10-17T16:21:51;13.40;;;12.03;;
2624;SDS011;1322;53.256;10.386;2022-10-17T16:24:17;8.87;;;8.00;;
2624;SDS011;1322;53.256;10.386;2022-10-17T16:26:43;9.10;;;7.33;;
2624;SDS011;1322;53.256;10.386;2022-10-17T16:29:09;20.30;;;14.00;;
2624;SDS011;1322;53.256;10.386;2022-10-17T16:31:35;18.13;;;14.03;;
2624;SDS011;1322;53.256;10.386;2022-10-17T16:34:04;17.97;;;12.00;;
2624;SDS011;1322;53.256;10.386;2022-10-17T16:36:31;11.83;;;9.43;;
2624;SDS011;1322;53.256;10.386;2022-10-17T16:38:57;15.17;;;13.57;;
2624;SDS011;1322;53.256;10.386;2022-10-17T16:41:24;20.00;;;17.87;;
2624;SDS011;1322;53.256;10.386;2022-10-17T16:43:55;21.90;;;19.50;;
2624;SDS011;1322;53.256;10.386;2022-10-17T16:46:23;13.13;;;8.50;;
2624;SDS011;1322;53.256;10.386;2022-10-17T16:48:50;12.57;;;9.30;;
2624;SDS011;1322;53.256;10.386;2022-10-17T16:51:17;13.07;;;11.77;;
2624;SDS011;1322;53.256;10.386;2022-10-17T16:53:47;27.30;;;24.80;;
2624;SDS011;1322;53.256;10.386;2022-10-17T16:56:18;11.67;;;9.73;;
2624;SDS011;1322;53.256;10.386;2022-10-17T16:58:45;9.63;;;8.77;;
2624;SDS011;1322;53.256;10.386;2022-10-17T17:01:15;11.40;;;10.20;;
2624;SDS011;1322;53.256;10.386;2022-10-17T17:03:43;24.77;;;22.03;;
2624;SDS011;1322;53.256;10.386;2022-10-17T17:06:17;10.57;;;9.57;;
2624;SDS011;1322;53.256;10.386;2022-10-17T17:08:48;16.63;;;14.10;;
2624;SDS011;1322;53.256;10.386;2022-10-17T17:11:15;22.90;;;20.40;;
2624;SDS011;1322;53.256;10.386;2022-10-17T17:13:42;11.40;;;9.30;;
2624;SDS011;1322;53.256;10.386;2022-10-17T17:16:12;36.33;;;30.83;;
2624;SDS011;1322;53.256;10.386;2022-10-17T17:18:46;20.00;;;12.97;;
2624;SDS011;1322;53.256;10.386;2022-10-17T17:21:13;10.27;;;9.10;;
2624;SDS011;1322;53.256;10.386;2022-10-17T17:23:39;29.93;;;26.47;;
2624;SDS011;1322;53.256;10.386;2022-10-17T17:26:08;14.33;;;13.03;;
2624;SDS011;1322;53.256;10.386;2022-10-17T17:28:38;12.50;;;8.63;;